Station History

Weather Underground - logo

Station Historical Data
 
Daily Summary for September 22, 2018 Units:  English    Metric   Both
« Previous Day
Next Day »
Daily Weekly Monthly Yearly Custom
  Current: High: Low: Average:
Temperature: 77.9 °F 95.2 °F 57 °F 76.1 °F
Dew Point: 56.6 °F 56.6 °F 46 °F 51.9 °F
Humidity: 48 % 80 % 19 % 48 %
Wind Speed: 0 mph 5.8 mph 0 mph 0.9 mph
Wind Gust: 0 mph 2.5 mph - -
Wind:Calm - - SW
Pressure: 29.77 in 29.95 in 29.77 in -
Precipitation: 0 in      
Historical Graphs
 
 
Tabular Data for September 22, 2018
Time Temperature Dew Point Pressure Wind Wind Speed Wind Gust Humidity Rainfall Rate (Hourly)
00:04 63.9 °F 52.7 °F 29.91 in Calm     67 % 0 in
00:10 64.5 °F 51.6 °F 29.91 in Calm     63 % 0 in
00:14 65.2 °F 52.3 °F 29.91 in Calm     63 % 0 in
00:20 65.1 °F 52.2 °F 29.90 in Calm     63 % 0 in
00:24 64.9 °F 52.8 °F 29.90 in Calm     65 % 0 in
00:29 64.7 °F 53.1 °F 29.90 in Calm     66 % 0 in
00:34 64.5 °F 52.9 °F 29.90 in Calm     66 % 0 in
00:39 64.5 °F 52 °F 29.90 in Calm     64 % 0 in
00:44 64.7 °F 52.7 °F 29.90 in Calm     65 % 0 in
00:49 64.7 °F 53.5 °F 29.90 in Calm     67 % 0 in
00:55 64.6 °F 53.8 °F 29.90 in Calm     68 % 0 in
00:59 64.3 °F 53.9 °F 29.90 in Calm     69 % 0 in
01:05 63.7 °F 54.1 °F 29.90 in Calm     71 % 0 in
01:10 62.9 °F 53.7 °F 29.90 in Calm     72 % 0 in
01:14 62.3 °F 53.5 °F 29.90 in Calm     73 % 0 in
01:20 61.9 °F 53.9 °F 29.90 in Calm     75 % 0 in
01:24 61.6 °F 53.6 °F 29.90 in Calm     75 % 0 in
01:29 61.6 °F 53.6 °F 29.91 in Calm     75 % 0 in
01:34 61.6 °F 54 °F 29.90 in Calm     76 % 0 in
01:39 61.4 °F 53.4 °F 29.90 in Calm     75 % 0 in
01:44 61.3 °F 52.6 °F 29.90 in Calm     73 % 0 in
01:49 61.3 °F 52.6 °F 29.90 in Calm     73 % 0 in
01:55 61.3 °F 52.6 °F 29.90 in Calm     73 % 0 in
01:59 61.2 °F 53.2 °F 29.90 in Calm     75 % 0 in
02:05 61.3 °F 52.6 °F 29.90 in Calm     73 % 0 in
02:09 61.2 °F 51.7 °F 29.90 in Calm     71 % 0 in
02:15 61.1 °F 51.2 °F 29.90 in Calm     70 % 0 in
02:20 61.3 °F 51.4 °F 29.90 in Calm     70 % 0 in
02:24 61.4 °F 51.9 °F 29.90 in Calm     71 % 0 in
02:30 61.2 °F 52.1 °F 29.90 in Calm     72 % 0 in
02:35 61.3 °F 51.8 °F 29.90 in Calm     71 % 0 in
02:40 61.7 °F 51 °F 29.90 in Calm     68 % 0 in
02:44 62 °F 50.1 °F 29.90 in ENE 1.2 mph   65 % 0 in
02:49 62 °F 50.1 °F 29.90 in Calm     65 % 0 in
02:55 61.8 °F 49.5 °F 29.90 in Calm     64 % 0 in
02:59 61.7 °F 49 °F 29.90 in Calm     63 % 0 in
03:04 61.8 °F 48.6 °F 29.90 in Calm     62 % 0 in
03:09 61.9 °F 48.3 °F 29.90 in Calm     61 % 0 in
03:14 61.9 °F 48.3 °F 29.89 in Calm     61 % 0 in
03:19 62 °F 48.8 °F 29.90 in Calm     62 % 0 in
03:24 61.9 °F 48.3 °F 29.89 in Calm     61 % 0 in
03:29 61.7 °F 51 °F 29.89 in Calm     68 % 0 in
03:35 61.3 °F 49.4 °F 29.90 in Calm     65 % 0 in
03:40 61 °F 49.6 °F 29.89 in Calm     66 % 0 in
03:44 60.8 °F 50.6 °F 29.89 in Calm     69 % 0 in
03:50 60.8 °F 51.3 °F 29.89 in Calm     71 % 0 in
03:54 60.5 °F 49.1 °F 29.89 in Calm     66 % 0 in
03:59 60.5 °F 49.9 °F 29.90 in Calm     68 % 0 in
04:04 60.8 °F 48.5 °F 29.90 in Calm     64 % 0 in
04:09 61 °F 49.6 °F 29.90 in Calm     66 % 0 in
04:14 60.7 °F 49.3 °F 29.90 in Calm     66 % 0 in
04:20 60.4 °F 49.4 °F 29.90 in Calm     67 % 0 in
04:24 60.1 °F 49.5 °F 29.90 in Calm     68 % 0 in
04:29 59.8 °F 49.2 °F 29.90 in Calm     68 % 0 in
04:34 59.7 °F 49.1 °F 29.90 in Calm     68 % 0 in
04:39 59.9 °F 49.3 °F 29.90 in Calm     68 % 0 in
04:44 59.9 °F 50.5 °F 29.90 in Calm     71 % 0 in
04:50 59.9 °F 51.2 °F 29.90 in Calm     73 % 0 in
04:54 59.6 °F 50.6 °F 29.90 in Calm     72 % 0 in
04:59 59.3 °F 50.3 °F 29.90 in Calm     72 % 0 in
05:04 59.3 °F 50.3 °F 29.90 in Calm     72 % 0 in
05:09 59.2 °F 50.2 °F 29.90 in Calm     72 % 0 in
05:14 59 °F 50.4 °F 29.90 in Calm     73 % 0 in
05:19 58.7 °F 50.4 °F 29.90 in Calm     74 % 0 in
05:24 58.5 °F 51 °F 29.90 in Calm     76 % 0 in
05:29 58.2 °F 50.7 °F 29.90 in Calm     76 % 0 in
05:34 58.3 °F 51.1 °F 29.90 in Calm     77 % 0 in
05:39 58.3 °F 50.8 °F 29.90 in Calm     76 % 0 in
05:44 58.3 °F 50 °F 29.90 in Calm     74 % 0 in
05:50 58.5 °F 50.2 °F 29.91 in Calm     74 % 0 in
05:54 58.4 °F 50.9 °F 29.91 in Calm     76 % 0 in
05:59 58 °F 50.5 °F 29.91 in Calm     76 % 0 in
06:04 57.5 °F 50.3 °F 29.91 in Calm     77 % 0 in
06:09 57.1 °F 50.3 °F 29.91 in Calm     78 % 0 in
06:14 57.2 °F 51.1 °F 29.91 in Calm     80 % 0 in
06:19 57.3 °F 50.8 °F 29.91 in Calm     79 % 0 in
06:25 57.2 °F 50.7 °F 29.91 in Calm     79 % 0 in
06:29 57.1 °F 50 °F 29.92 in Calm     77 % 0 in
06:34 57.1 °F 50 °F 29.92 in Calm     77 % 0 in
06:39 57.2 °F 49.7 °F 29.92 in Calm     76 % 0 in
06:44 57.1 °F 50 °F 29.92 in Calm     77 % 0 in
06:50 57 °F 49.9 °F 29.92 in Calm     77 % 0 in
06:55 57 °F 50.5 °F 29.92 in Calm     79 % 0 in
06:59 57.2 °F 50.1 °F 29.92 in Calm     77 % 0 in
07:05 57.5 °F 50.3 °F 29.92 in Calm     77 % 0 in
07:10 57.6 °F 50.1 °F 29.92 in Calm     76 % 0 in
07:14 57.6 °F 50.1 °F 29.92 in Calm     76 % 0 in
07:19 57.9 °F 50.4 °F 29.92 in Calm     76 % 0 in
07:24 57.9 °F 50 °F 29.92 in Calm     75 % 0 in
07:29 58.1 °F 49.5 °F 29.93 in Calm     73 % 0 in
07:35 58.6 °F 50 °F 29.93 in Calm     73 % 0 in
07:39 59.1 °F 50.8 °F 29.93 in Calm     74 % 0 in
07:44 59.7 °F 51 °F 29.93 in Calm     73 % 0 in
07:49 60.3 °F 50.9 °F 29.93 in Calm     71 % 0 in
07:54 61.1 °F 51.2 °F 29.93 in Calm     70 % 0 in
07:59 62 °F 51.3 °F 29.94 in Calm     68 % 0 in
08:04 63.2 °F 50.4 °F 29.94 in Calm     63 % 0 in
08:09 64.7 °F 50.9 °F 29.94 in Calm     61 % 0 in
08:15 66.4 °F 52.1 °F 29.94 in Calm     60 % 0 in
08:19 68.5 °F 52.7 °F 29.94 in Calm     57 % 0 in
08:24 69.4 °F 49.4 °F 29.95 in Calm     49 % 0 in
08:29 70.3 °F 48.5 °F 29.95 in Calm     46 % 0 in
08:34 71.2 °F 49.9 °F 29.95 in Calm     47 % 0 in
08:40 72.2 °F 49.7 °F 29.95 in Calm     45 % 0 in
08:44 73 °F 49.2 °F 29.95 in Calm     43 % 0 in
08:49 73 °F 49.2 °F 29.95 in South 1.2 mph   43 % 0 in
08:55 73.3 °F 50.1 °F 29.95 in SE 2.3 mph 0.5 mph 44 % 0 in
08:59 73.6 °F 50.3 °F 29.94 in SE 3.5 mph 0.3 mph 44 % 0 in
09:04 73.6 °F 49.1 °F 29.94 in SSE 2.3 mph 0.4 mph 42 % 0 in
09:09 74.2 °F 50.3 °F 29.94 in East 2.3 mph 0.3 mph 43 % 0 in
09:14 74.8 °F 50.2 °F 29.94 in SSW 2.3 mph   42 % 0 in
09:20 75.2 °F 50.5 °F 29.94 in ESE 2.3 mph 0.2 mph 42 % 0 in
09:24 75.2 °F 49.9 °F 29.95 in NE 3.5 mph 0.5 mph 41 % 0 in
09:29 75.3 °F 51.3 °F 29.95 in Calm   0.7 mph 43 % 0 in
09:34 75.7 °F 51 °F 29.95 in ESE 1.2 mph 0.9 mph 42 % 0 in
09:39 76 °F 51.9 °F 29.95 in ENE 2 mph 0.9 mph 43 % 0 in
09:44 76.3 °F 52.8 °F 29.95 in SE 1.2 mph 0.2 mph 44 % 0 in
09:50 76.7 °F 52.5 °F 29.94 in NE 1.2 mph 0.2 mph 43 % 0 in
09:55 76.9 °F 52.7 °F 29.94 in SE 3.5 mph 0.8 mph 43 % 0 in
09:59 77.5 °F 53.2 °F 29.94 in South 1.2 mph 0.3 mph 43 % 0 in
10:04 78.1 °F 53.1 °F 29.94 in East 2.3 mph 1 mph 42 % 0 in
10:10 78.2 °F 53.2 °F 29.94 in ESE 1.2 mph 0.2 mph 42 % 0 in
10:14 78.4 °F 52.7 °F 29.94 in ESE 1.2 mph   41 % 0 in
10:19 79 °F 53.9 °F 29.94 in East 2.3 mph   42 % 0 in
10:24 79.5 °F 55 °F 29.94 in NNE 1.2 mph   43 % 0 in
10:29 80.3 °F 55.1 °F 29.94 in ESE 3.5 mph 0.1 mph 42 % 0 in
10:34 81 °F 55.1 °F 29.94 in East 2 mph 0.5 mph 41 % 0 in
10:40 81.4 °F 55.4 °F 29.94 in Calm     41 % 0 in
10:45 82 °F 54.6 °F 29.94 in ENE 1.2 mph 0.4 mph 39 % 0 in
10:50 82.4 °F 55 °F 29.94 in ESE 2.3 mph 0.6 mph 39 % 0 in
10:54 82.7 °F 55.9 °F 29.94 in South 1.2 mph 0.3 mph 40 % 0 in
10:59 82.8 °F 54.6 °F 29.94 in ESE 1.2 mph 0.9 mph 38 % 0 in
11:04 82.9 °F 54.7 °F 29.94 in NW 1.2 mph 0.8 mph 38 % 0 in
11:09 83.2 °F 56.4 °F 29.93 in ESE 2.3 mph 0.5 mph 40 % 0 in
11:15 83.6 °F 54.6 °F 29.93 in WSW 3.5 mph 0.8 mph 37 % 0 in
11:20 84.2 °F 55.1 °F 29.93 in South 1.2 mph   37 % 0 in
11:25 84.7 °F 55.5 °F 29.93 in SE 2.3 mph 0.2 mph 37 % 0 in
11:29 85.1 °F 55.1 °F 29.93 in SSE 1.2 mph 0.1 mph 36 % 0 in
11:34 85.4 °F 53.8 °F 29.93 in SW 1.2 mph 0.2 mph 34 % 0 in
11:39 85.9 °F 55.8 °F 29.92 in SSW 1.2 mph   36 % 0 in
11:45 86.5 °F 53.1 °F 29.93 in NW 2.3 mph 0.5 mph 32 % 0 in
11:50 86.5 °F 52.3 °F 29.92 in Calm     31 % 0 in
11:54 86.6 °F 54.1 °F 29.92 in SSE 1.2 mph 0.5 mph 33 % 0 in
11:59 86.7 °F 55.8 °F 29.92 in NNW 1.2 mph   35 % 0 in
12:04 87.4 °F 53.1 °F 29.92 in SSW 1.2 mph 0.4 mph 31 % 0 in
12:09 87.8 °F 53.4 °F 29.91 in SE 2.3 mph 0.1 mph 31 % 0 in
12:15 88.8 °F 54.3 °F 29.91 in SSE 3.5 mph 1.4 mph 31 % 0 in
12:19 89.1 °F 53.6 °F 29.91 in SSE 1.2 mph 0.3 mph 30 % 0 in
12:25 89.2 °F 51.8 °F 29.91 in SE 3.5 mph 1.5 mph 28 % 0 in
12:30 89.5 °F 55.7 °F 29.91 in ENE 1.2 mph 0.1 mph 32 % 0 in
12:34 89.9 °F 53.4 °F 29.91 in WNW 1.2 mph 0.1 mph 29 % 0 in
12:39 89.5 °F 54 °F 29.90 in NNW 1.2 mph   30 % 0 in
12:45 89.8 °F 54.2 °F 29.90 in Calm     30 % 0 in
12:49 89.8 °F 53.3 °F 29.90 in NNW 2 mph 0.6 mph 29 % 0 in
12:54 89.7 °F 52.3 °F 29.89 in NW 2.3 mph 0.7 mph 28 % 0 in
12:59 90.1 °F 53.6 °F 29.89 in NW 1 mph 0.9 mph 29 % 0 in
13:04 90.3 °F 53.7 °F 29.89 in WNW 1.2 mph 0.7 mph 29 % 0 in
13:09 90.2 °F 52.7 °F 29.89 in NW 2.3 mph 1.5 mph 28 % 0 in
13:15 90.1 °F 52.6 °F 29.88 in WNW 1.2 mph 0.3 mph 28 % 0 in
13:19 90.6 °F 53 °F 29.88 in North 3.5 mph 1.8 mph 28 % 0 in
13:24 90.8 °F 53.2 °F 29.88 in NE 1.2 mph 0.3 mph 28 % 0 in
13:29 91.5 °F 52.8 °F 29.87 in East 3 mph 1.6 mph 27 % 0 in
13:35 91.9 °F 53.1 °F 29.87 in West 3.5 mph 1.3 mph 27 % 0 in
13:39 92.2 °F 54.4 °F 29.86 in NW 2.3 mph 1 mph 28 % 0 in
13:44 92.3 °F 52.5 °F 29.86 in WNW 3.5 mph 0.5 mph 26 % 0 in
13:50 92.7 °F 51.7 °F 29.86 in WNW 1.2 mph   25 % 0 in
13:54 92.9 °F 51.9 °F 29.86 in WSW 1.2 mph 0.9 mph 25 % 0 in
14:00 93.5 °F 50.1 °F 29.86 in SW 1.2 mph   23 % 0 in
14:04 93.9 °F 51.6 °F 29.86 in East 2.3 mph 0.1 mph 24 % 0 in
14:10 94 °F 51.7 °F 29.85 in Calm     24 % 0 in
14:15 94.2 °F 51.9 °F 29.85 in NW 1.2 mph 0.2 mph 24 % 0 in
14:19 94.5 °F 53.2 °F 29.85 in Calm   0.6 mph 25 % 0 in
14:25 94.8 °F 53.5 °F 29.84 in WSW 1.2 mph 0.7 mph 25 % 0 in
14:30 94.7 °F 53.4 °F 29.84 in North 2.3 mph 1.2 mph 25 % 0 in
14:34 94.6 °F 52.2 °F 29.84 in NW 1.2 mph 0.6 mph 24 % 0 in
14:40 94.6 °F 52.2 °F 29.84 in NNW 2.3 mph 0.5 mph 24 % 0 in
14:45 94.4 °F 53.2 °F 29.83 in North 5.8 mph 1.5 mph 25 % 0 in
14:49 94.7 °F 52.3 °F 29.83 in WNW 2.3 mph 1.9 mph 24 % 0 in
14:55 94.7 °F 53.4 °F 29.83 in NW 3.5 mph 1.8 mph 25 % 0 in
14:59 94.5 °F 52.1 °F 29.83 in North 1.2 mph 0.3 mph 24 % 0 in
15:04 94.6 °F 52.2 °F 29.83 in NNE 2.3 mph 1.9 mph 24 % 0 in
15:10 94.6 °F 51.1 °F 29.82 in NW 2.3 mph 1.6 mph 23 % 0 in
15:14 94.5 °F 49.8 °F 29.82 in NW 2.3 mph 1.9 mph 22 % 0 in
15:19 94.7 °F 52.3 °F 29.82 in NW 1.2 mph 0.2 mph 24 % 0 in
15:24 94.8 °F 51.2 °F 29.82 in NW 3.5 mph 0.5 mph 23 % 0 in
15:29 94.9 °F 50.1 °F 29.81 in WNW 2.3 mph 2 mph 22 % 0 in
15:34 95 °F 50.2 °F 29.81 in NW 1.2 mph 0.2 mph 22 % 0 in
15:39 95.2 °F 49.1 °F 29.81 in NW 1.2 mph   21 % 0 in
15:45 95.1 °F 49 °F 29.81 in NW 2.3 mph 1.2 mph 21 % 0 in
15:50 94.9 °F 48.9 °F 29.81 in West 2.3 mph 1.1 mph 21 % 0 in
15:54 94.8 °F 50 °F 29.80 in NW 2.3 mph 2.5 mph 22 % 0 in
15:59 94.7 °F 48.7 °F 29.80 in NW 2.3 mph 1.2 mph 21 % 0 in
16:04 94.8 °F 48.8 °F 29.80 in NW 2.3 mph 0.7 mph 21 % 0 in
16:09 94.7 °F 46 °F 29.80 in WNW 3.5 mph 0.9 mph 19 % 0 in
16:15 94.8 °F 48.8 °F 29.80 in WSW 1.2 mph 0.1 mph 21 % 0 in
16:19 94.7 °F 48.7 °F 29.80 in NW 3.5 mph 1.2 mph 21 % 0 in
16:25 94.6 °F 47.3 °F 29.80 in NNW 3 mph 0.9 mph 20 % 0 in
16:30 94.6 °F 47.3 °F 29.79 in WNW 2.3 mph 0.8 mph 20 % 0 in
16:34 94.4 °F 49.7 °F 29.79 in WNW 2.3 mph 1.2 mph 22 % 0 in
16:40 94.3 °F 52 °F 29.79 in NW 3.5 mph 1.1 mph 24 % 0 in
16:44 94.6 °F 51.1 °F 29.79 in WNW 3.5 mph 1.1 mph 23 % 0 in
16:50 94.6 °F 51.1 °F 29.79 in NW 3.5 mph 1.7 mph 23 % 0 in
16:55 94.6 °F 51.1 °F 29.79 in WNW 1.2 mph   23 % 0 in
16:59 94.6 °F 51.1 °F 29.79 in NW 2.3 mph 1.2 mph 23 % 0 in
17:04 94.7 °F 51.1 °F 29.79 in WNW 2.3 mph 1.1 mph 23 % 0 in
17:10 94.6 °F 53.3 °F 29.79 in WNW 1.2 mph 0.4 mph 25 % 0 in
17:15 94.5 °F 52.1 °F 29.79 in NW 2.3 mph 1 mph 24 % 0 in
17:19 93.9 °F 51.6 °F 29.79 in SSE 2.3 mph 1.2 mph 24 % 0 in
17:24 93.5 °F 50.1 °F 29.79 in NW 2.3 mph 1 mph 23 % 0 in
17:29 93.2 °F 51 °F 29.79 in NW 3.5 mph 0.8 mph 24 % 0 in
17:34 92.9 °F 51.9 °F 29.79 in NW 1.2 mph 0.3 mph 25 % 0 in
17:39 92.5 °F 52.6 °F 29.79 in WSW 1.2 mph   26 % 0 in
17:45 92.2 °F 53.4 °F 29.79 in WNW 1.2 mph   27 % 0 in
17:50 91.7 °F 53 °F 29.78 in North 1.2 mph 0.2 mph 27 % 0 in
17:54 91.4 °F 52.7 °F 29.78 in NW 1.2 mph 0.5 mph 27 % 0 in
17:59 91 °F 53.4 °F 29.78 in Calm   0.3 mph 28 % 0 in
18:04 90.6 °F 53 °F 29.78 in NW 2.3 mph 0.3 mph 28 % 0 in
18:09 90.2 °F 53.6 °F 29.78 in NW 1.2 mph   29 % 0 in
18:15 90 °F 53.5 °F 29.78 in North 1.2 mph 0.1 mph 29 % 0 in
18:20 89.7 °F 52.3 °F 29.77 in NNW 1.2 mph 0.2 mph 28 % 0 in
18:24 89.4 °F 53 °F 29.77 in Calm     29 % 0 in
18:29 88.9 °F 53.5 °F 29.77 in Calm     30 % 0 in
18:34 88 °F 54.4 °F 29.77 in Calm     32 % 0 in
18:40 87 °F 53.6 °F 29.77 in Calm     32 % 0 in
18:44 86.5 °F 53.1 °F 29.77 in Calm     32 % 0 in
18:49 85.9 °F 54.3 °F 29.77 in Calm     34 % 0 in
18:55 85 °F 53.5 °F 29.77 in Calm     34 % 0 in
18:59 84 °F 54.9 °F 29.77 in Calm     37 % 0 in
19:04 83.1 °F 54.9 °F 29.77 in Calm     38 % 0 in
19:09 82.2 °F 56.2 °F 29.77 in Calm     41 % 0 in
19:15 81.2 °F 55.3 °F 29.77 in Calm     41 % 0 in
19:20 80.5 °F 55.3 °F 29.77 in Calm     42 % 0 in
19:24 79.9 °F 54.1 °F 29.77 in Calm     41 % 0 in
19:30 79.7 °F 54.6 °F 29.77 in Calm     42 % 0 in
19:34 79.3 °F 54.2 °F 29.77 in Calm     42 % 0 in
19:39 79 °F 54.6 °F 29.77 in Calm     43 % 0 in
19:44 79 °F 54.6 °F 29.77 in Calm     43 % 0 in
19:49 79 °F 53.9 °F 29.77 in Calm     42 % 0 in
19:54 79 °F 55.8 °F 29.77 in Calm     45 % 0 in
19:59 78.6 °F 56.1 °F 29.77 in Calm     46 % 0 in
20:04 77.9 °F 56.6 °F 29.77 in Calm     48 % 0 in
Park Place, Exeter, Tulare County, California, USA
Compliments of Weather Underground - 2.5 mb